^^
Datos históricos de la estación: Murcia-Puente Tocinos
Diario Informe para Septiembre 7, 2021 Unidades:  Métrico    Ingés   Ambas
Diario Semanal Mensual Anual
  Máxima: Mínima: Promedio:
Temperatura: 8.7 °C 5.2 °C 6 °C
Punto de rocio: 5.7 °C 3.7 °C 4.7 °C
Humedad: 95% 71% 91%
Velocidad viento: 12.2km/h 0km/h 7.3km/h
Racha viento: 22.5km/h - -
Viento- - SSO
Presión: 1011.3 hPa 1008.9 hPa -
Precipitación: 16.4 mm    
 
 
Tabla de datos para Septiembre 7, 2021
Hora Temperatura Punto de rocio Presión Viento Velocidad viento Racha viento Humedad Intensidad lluvia(por hora) Nubes
00:04 8.7 °C 3.7 °C 1010.9 hPa NE 6.9 km/h 16.7 km/h 71% 0.0 mm
00:09 8.7 °C 3.9 °C 1010.9 hPa NE 7.4 km/h 16.1 km/h 71.7% 0.0 mm
00:14 8.7 °C 3.9 °C 1010.9 hPa NE 7.6 km/h 11.3 km/h 72% 0.0 mm
00:19 8.6 °C 4 °C 1010.9 hPa NNE 6.8 km/h 12.2 km/h 72.8% 0.0 mm
00:24 8.5 °C 4 °C 1010.9 hPa NNE 6.5 km/h 13 km/h 73.2% 0.0 mm
00:29 8.4 °C 4.1 °C 1010.8 hPa NE 7.4 km/h 13 km/h 74% 0.0 mm
00:34 8.4 °C 4.2 °C 1010.8 hPa ENE 7.6 km/h 13 km/h 74.6% 0.0 mm
00:39 8.3 °C 4.2 °C 1010.9 hPa NE 7.2 km/h 12.9 km/h 75.6% 0.0 mm
00:44 8.2 °C 4.2 °C 1010.9 hPa NE 6.9 km/h 14.8 km/h 76% 0.0 mm
00:49 8.1 °C 4.2 °C 1010.9 hPa NNE 7.8 km/h 14.5 km/h 76.6% 0.0 mm
00:54 8 °C 4.3 °C 1010.9 hPa NE 8.4 km/h 14.5 km/h 77% 0.0 mm
00:59 7.9 °C 4.1 °C 1010.8 hPa NE 7.4 km/h 12.9 km/h 77% 0.0 mm
01:04 7.9 °C 4.2 °C 1010.8 hPa NNE 6.9 km/h 14.8 km/h 77.7% 0.0 mm
01:09 7.9 °C 4.3 °C 1010.8 hPa NNE 6.9 km/h 14.5 km/h 78% 0.5 mm
01:14 7.8 °C 4.3 °C 1010.7 hPa NNE 6.9 km/h 11.3 km/h 78.5% 0.5 mm
01:19 7.8 °C 4.4 °C 1010.7 hPa NNE 6.6 km/h 9.7 km/h 79% 0.5 mm
01:24 7.7 °C 4.4 °C 1010.7 hPa NNE 6.5 km/h 9.7 km/h 79.9% 0.5 mm
01:29 7.7 °C 4.5 °C 1010.7 hPa NNE 6.5 km/h 11.9 km/h 80.3% 0.5 mm
01:34 7.6 °C 4.6 °C 1010.7 hPa NNE 6.5 km/h 11.3 km/h 81% 0.5 mm
01:39 7.6 °C 4.5 °C 1010.7 hPa NNE 6.5 km/h 11.3 km/h 81.2% 0.8 mm
01:44 7.4 °C 4.6 °C 1010.7 hPa NNE 6.4 km/h 11.1 km/h 82% 0.8 mm
01:49 7.4 °C 4.7 °C 1010.7 hPa NNE 7.1 km/h 11.3 km/h 82.8% 0.8 mm
01:54 7.3 °C 4.7 °C 1010.7 hPa NNE 7.6 km/h 11.3 km/h 83.6% 1.0 mm
01:59 7.3 °C 4.8 °C 1010.2 hPa NNE 7.1 km/h 11.3 km/h 84.5% 1.0 mm
02:04 7.2 °C 4.9 °C 1010.2 hPa NNE 6.9 km/h 11.9 km/h 85.2% 1.0 mm
02:09 7.2 °C 5 °C 1010.2 hPa NNE 7.3 km/h 11.3 km/h 86% 1.0 mm
02:14 7.2 °C 5.1 °C 1010.1 hPa NE 7.6 km/h 11.3 km/h 86.7% 0.5 mm
02:19 7.2 °C 5.2 °C 1010.1 hPa NE 6.8 km/h 9.7 km/h 87% 0.8 mm
02:24 7.2 °C 5.3 °C 1010.1 hPa NNE 6.5 km/h 11.1 km/h 87.6% 0.8 mm
02:29 7.2 °C 5.3 °C 1010.1 hPa NNE 6.1 km/h 11.3 km/h 88% 0.8 mm
02:34 7.2 °C 5.4 °C 1010.1 hPa NNE 5.8 km/h 11.3 km/h 88.3% 0.8 mm
02:39 7.2 °C 5.5 °C 1010.1 hPa NNE 6.5 km/h 13 km/h 89% 0.8 mm
02:44 7.2 °C 5.5 °C 1010.1 hPa NNE 6.9 km/h 12.9 km/h 89% 0.7 mm
02:49 7.2 °C 5.5 °C 1010.1 hPa NNE 7.3 km/h 16.7 km/h 89.3% 0.7 mm
02:54 7.2 °C 5.7 °C 1010.1 hPa North 7.6 km/h 20.9 km/h 90% 0.7 mm
02:59 7.2 °C 5.7 °C 1010.1 hPa NNE 9.8 km/h 20.9 km/h 90% 0.8 mm
03:04 7.2 °C 5.7 °C 1010.1 hPa NNE 11.1 km/h 20.9 km/h 90% 0.8 mm
03:09 7.2 °C 5.7 °C 1010.1 hPa NNE 11.8 km/h 22.2 km/h 90% 0.8 mm
03:14 7.2 °C 5.7 °C 1010.1 hPa NNE 12.2 km/h 22.5 km/h 90% 1.3 mm
03:19 7.2 °C 5.7 °C 1010.1 hPa NNE 10.5 km/h 16.1 km/h 90% 1.3 mm
03:24 7.2 °C 5.7 °C 1010.1 hPa NNE 9.5 km/h 14.8 km/h 90% 1.0 mm
03:29 7.2 °C 5.7 °C 1009.6 hPa North 8.3 km/h 15.6 km/h 90.5% 1.0 mm
03:34 7 °C 5.5 °C 1009.6 hPa North 7.6 km/h 18.5 km/h 90% 1.0 mm
03:39 6.8 °C 5.3 °C 1009.6 hPa NNE 8.3 km/h 19.3 km/h 90% 1.0 mm
03:44 6.7 °C 5.2 °C 1009.6 hPa North 8.7 km/h 16.1 km/h 89.8% 1.1 mm
03:49 6.7 °C 5 °C 1009.6 hPa North 6.9 km/h 16.7 km/h 89.1% 1.1 mm
03:54 6.6 °C 4.9 °C 1009.6 hPa North 5.8 km/h 16.1 km/h 89% 1.1 mm
03:59 6.5 °C 4.8 °C 1009.3 hPa NNE 7.4 km/h 14.8 km/h 88.8% 1.0 mm
04:04 6.4 °C 4.6 °C 1009.3 hPa NNE 8.4 km/h 14.5 km/h 88% 1.0 mm
04:09 6.4 °C 4.6 °C 1009.3 hPa NNE 8.5 km/h 14.5 km/h 88% 1.0 mm
04:14 6.4 °C 4.6 °C 1009.1 hPa NNE 8.7 km/h 11.3 km/h 88% 1.0 mm
04:19 6.4 °C 4.6 °C 1009.1 hPa NNE 7.3 km/h 9.7 km/h 88% 0.8 mm
04:24 6.4 °C 4.6 °C 1009.1 hPa NNE 6.5 km/h 8.4 km/h 88% 0.8 mm
04:29 6.4 °C 4.6 °C 1008.9 hPa North 5.6 km/h 8 km/h 88% 0.8 mm
04:34 6.4 °C 4.6 °C 1008.9 hPa NO 5 km/h 8.4 km/h 88.1% 0.8 mm
04:39 6.4 °C 4.6 °C 1008.9 hPa NO 3.8 km/h 8 km/h 88.3% 0.8 mm
04:44 6.4 °C 4.7 °C 1008.9 hPa NO 3.2 km/h 8 km/h 89% 0.7 mm
04:49 6.4 °C 4.7 °C 1008.9 hPa NO 3.6 km/h 8 km/h 89% 0.7 mm
04:54 6.4 °C 4.7 °C 1009.0 hPa NO 3.9 km/h 8 km/h 89% 0.7 mm
04:59 6.4 °C 4.7 °C 1009.0 hPa OSO 3.9 km/h 8 km/h 89% 0.7 mm
05:04 6.4 °C 4.7 °C 1009.0 hPa OSO 3.9 km/h 8 km/h 89% 0.5 mm
05:09 6.4 °C 4.7 °C 1009.1 hPa OSO 3.9 km/h 6.9 km/h 89% 0.5 mm
05:14 6.4 °C 4.7 °C 1009.1 hPa OSO 3.9 km/h 8 km/h 89% 0.5 mm
05:19 6.4 °C 4.7 °C 1009.1 hPa OSO 3.9 km/h 8 km/h 89% 0.2 mm
05:24 6.4 °C 4.7 °C 1009.1 hPa OSO 3.9 km/h 8 km/h 89% 0.7 mm
05:29 6.4 °C 4.8 °C 1009.1 hPa OSO 3.5 km/h 7.4 km/h 89.3% 0.7 mm
05:34 6.4 °C 4.9 °C 1009.1 hPa OSO 3.2 km/h 8 km/h 90% 1.0 mm
05:39 6.4 °C 4.9 °C 1009.1 hPa OSO 3.6 km/h 6.4 km/h 90% 1.0 mm
05:44 6.4 °C 4.9 °C 1009.1 hPa OSO 3.9 km/h 5.8 km/h 90% 1.3 mm
05:49 6.4 °C 4.9 °C 1009.1 hPa OSO 3.3 km/h 6.4 km/h 90% 1.3 mm
05:54 6.3 °C 4.8 °C 1009.2 hPa OSO 2.9 km/h 5.8 km/h 90% 1.3 mm
05:59 6.3 °C 4.8 °C 1009.2 hPa OSO 2.9 km/h 6.4 km/h 90% 1.6 mm
06:04 6.3 °C 4.9 °C 1009.2 hPa OSO 2.9 km/h 3.9 km/h 90.6% 1.6 mm
06:09 6.3 °C 4.9 °C 1009.2 hPa OSO 2.5 km/h 4.7 km/h 91% 1.8 mm
06:14 6.3 °C 4.9 °C 1009.2 hPa Oeste 2.2 km/h 4.8 km/h 91% 1.8 mm
06:19 6.3 °C 4.9 °C 1009.2 hPa Oeste 2.6 km/h 5.6 km/h 91% 2.1 mm
06:24 6.3 °C 4.9 °C 1009.2 hPa Oeste 2.9 km/h 4.8 km/h 91% 2.1 mm
06:29 6.3 °C 4.9 °C 1009.1 hPa Oeste 1.1 km/h 3.7 km/h 91% 2.1 mm
06:34 6.2 °C 4.9 °C 1009.1 hPa Calm   7.4 km/h 91% 2.1 mm
06:39 6.2 °C 4.8 °C 1009.2 hPa NO 2 km/h 8 km/h 91% 2.0 mm
06:44 6.2 °C 4.8 °C 1009.2 hPa NO 3.2 km/h 5.6 km/h 91% 2.0 mm
06:49 6.2 °C 4.8 °C 1009.2 hPa NO 3 km/h 4.8 km/h 91% 2.0 mm
06:54 6.2 °C 4.8 °C 1009.3 hPa NO 2.9 km/h 5 km/h 91% 1.8 mm
06:59 6.2 °C 4.8 °C 1009.3 hPa Oeste 2.5 km/h 7.4 km/h 91% 1.8 mm
07:04 6.2 °C 5 °C 1009.3 hPa Oeste 2.2 km/h 8.4 km/h 91.7% 1.8 mm
07:09 6.2 °C 4.9 °C 1009.4 hPa ONO 3.7 km/h 8.4 km/h 91.6% 1.8 mm
07:14 6.2 °C 5 °C 1009.4 hPa ONO 4.7 km/h 10 km/h 92% 1.8 mm
07:19 6.1 °C 4.9 °C 1009.4 hPa Oeste 4.7 km/h 9.7 km/h 92% 1.8 mm
07:24 6.1 °C 4.9 °C 1009.6 hPa ONO 4.7 km/h 9.3 km/h 92% 1.8 mm
07:29 6.1 °C 4.9 °C 1009.6 hPa ONO 4.9 km/h 9.3 km/h 92% 1.6 mm
07:34 6.1 °C 4.9 °C 1009.6 hPa ONO 5 km/h 10 km/h 92% 1.5 mm
07:39 6 °C 4.8 °C 1009.8 hPa ONO 5 km/h 8.7 km/h 92% 1.5 mm
07:44 6 °C 4.8 °C 1009.8 hPa Oeste 5 km/h 11.1 km/h 92% 1.6 mm
07:49 6 °C 4.8 °C 1009.8 hPa Oeste 5.5 km/h 14 km/h 92% 1.6 mm
07:54 5.9 °C 4.7 °C 1010.0 hPa ONO 5.8 km/h 14.8 km/h 92% 1.5 mm
07:59 5.9 °C 4.7 °C 1010.0 hPa Oeste 6.9 km/h 16.7 km/h 92% 1.8 mm
08:04 5.8 °C 4.6 °C 1010.0 hPa Oeste 7.6 km/h 20.9 km/h 92% 1.5 mm
08:09 5.6 °C 4.4 °C 1010.0 hPa ONO 9.7 km/h 20.9 km/h 92% 1.7 mm
08:14 5.6 °C 4.3 °C 1009.8 hPa ONO 11.1 km/h 20.4 km/h 92% 1.7 mm
08:19 5.4 °C 4.2 °C 1009.8 hPa ONO 10.4 km/h 17.7 km/h 92% 1.8 mm
08:24 5.4 °C 4.2 °C 1010.1 hPa ONO 10 km/h 16.7 km/h 92% 1.8 mm
08:29 5.3 °C 4.1 °C 1010.1 hPa ONO 9.1 km/h 17.2 km/h 92% 1.5 mm
08:34 5.2 °C 4 °C 1010.1 hPa ONO 8.7 km/h 17.7 km/h 92% 1.5 mm
08:39 5.2 °C 4 °C 1010.1 hPa ONO 8.5 km/h 16.1 km/h 92% 1.6 mm
08:44 5.2 °C 4 °C 1010.1 hPa ONO 8.4 km/h 14.5 km/h 92% 1.3 mm
08:49 5.2 °C 4 °C 1010.1 hPa Oeste 8.4 km/h 14.8 km/h 92% 1.3 mm
08:54 5.2 °C 4 °C 1010.1 hPa Oeste 8.4 km/h 15.6 km/h 92% 1.1 mm
08:59 5.2 °C 4 °C 1010.1 hPa ONO 7.9 km/h 16.1 km/h 92% 1.1 mm
09:04 5.2 °C 4 °C 1010.1 hPa ONO 7.6 km/h 11.3 km/h 92% 1.0 mm
09:09 5.2 °C 4 °C 1010.2 hPa OSO 6 km/h 11.3 km/h 92% 1.0 mm
09:14 5.2 °C 4 °C 1010.2 hPa OSO 5 km/h 9.7 km/h 92% 0.8 mm
09:19 5.2 °C 4 °C 1010.2 hPa OSO 5 km/h 11.1 km/h 92% 0.8 mm
09:24 5.2 °C 4 °C 1010.3 hPa OSO 5 km/h 11.3 km/h 92% 0.5 mm
09:29 5.2 °C 4 °C 1010.3 hPa OSO 5.5 km/h 10 km/h 92% 1.0 mm
09:34 5.3 °C 4.1 °C 1010.3 hPa SO 5.8 km/h 11.9 km/h 92% 1.0 mm
09:39 5.3 °C 4.1 °C 1010.5 hPa SO 6.5 km/h 16.7 km/h 92% 1.0 mm
09:44 5.3 °C 4.1 °C 1010.5 hPa OSO 6.9 km/h 13 km/h 92% 0.7 mm
09:49 5.3 °C 4.1 °C 1010.5 hPa OSO 8.1 km/h 16.1 km/h 92% 0.7 mm
09:54 5.3 °C 4.1 °C 1010.6 hPa Oeste 8.7 km/h 16.7 km/h 92% 1.0 mm
09:59 5.3 °C 4.1 °C 1010.6 hPa SO 8 km/h 12.9 km/h 92% 1.0 mm
10:04 5.4 °C 4.2 °C 1010.6 hPa SSO 7.6 km/h 11.9 km/h 92% 0.8 mm
10:09 5.4 °C 4.2 °C 1010.6 hPa Sur 6.9 km/h 11.3 km/h 92% 0.8 mm
10:14 5.3 °C 4.2 °C 1010.6 hPa SSO 6.5 km/h 11.3 km/h 92% 0.8 mm
10:19 5.4 °C 4.2 °C 1010.6 hPa SSO 6.5 km/h 13 km/h 92% 1.0 mm
10:24 5.3 °C 4.1 °C 1010.8 hPa SSO 6.5 km/h 12.9 km/h 92% 1.0 mm
10:29 5.3 °C 4.1 °C 1010.8 hPa SSO 6.5 km/h 13 km/h 92% 1.0 mm
10:34 5.2 °C 4 °C 1010.8 hPa SSO 6.5 km/h 13.7 km/h 92% 0.5 mm
10:39 5.2 °C 4 °C 1010.8 hPa SSE 6.5 km/h 14.5 km/h 92% 0.5 mm
10:44 5.2 °C 4.1 °C 1010.8 hPa SSO 6.5 km/h 13 km/h 92.6% 0.8 mm
10:49 5.2 °C 4.2 °C 1010.8 hPa SSO 6.8 km/h 14 km/h 93% 0.8 mm
10:54 5.2 °C 4.2 °C 1010.9 hPa SSO 6.9 km/h 17.2 km/h 93% 0.5 mm
10:59 5.2 °C 4.2 °C 1010.9 hPa SO 7.3 km/h 17.7 km/h 93% 0.5 mm
11:04 5.2 °C 4.2 °C 1010.9 hPa SSO 7.6 km/h 13 km/h 93% 0.5 mm
11:09 5.2 °C 4.2 °C 1010.9 hPa SSO 6.9 km/h 12.9 km/h 93% 0.8 mm
11:14 5.2 °C 4.2 °C 1010.9 hPa SSO 6.5 km/h 14.8 km/h 93% 0.8 mm
11:19 5.2 °C 4.2 °C 1010.9 hPa SSO 7.2 km/h 14.8 km/h 93% 0.6 mm
11:24 5.2 °C 4.2 °C 1010.9 hPa SSO 7.6 km/h 14.5 km/h 93% 0.6 mm
11:29 5.2 °C 4.2 °C 1010.7 hPa SSO 7.6 km/h 9.7 km/h 93% 1.1 mm
11:34 5.3 °C 4.3 °C 1010.7 hPa SSO 7.6 km/h 13 km/h 93% 1.1 mm
11:39 5.3 °C 4.3 °C 1010.7 hPa SSO 7.2 km/h 13 km/h 93% 1.1 mm
11:44 5.3 °C 4.3 °C 1010.6 hPa SSE 6.9 km/h 12.9 km/h 93.5% 1.1 mm
11:49 5.3 °C 4.3 °C 1010.6 hPa SSO 6.2 km/h 16.7 km/h 93.2% 0.8 mm
11:54 5.2 °C 4.3 °C 1010.6 hPa SSO 5.8 km/h 16.1 km/h 93.7% 0.8 mm
11:59 5.3 °C 4.4 °C 1010.6 hPa SSO 7.5 km/h 16.4 km/h 94% 1.0 mm
12:04 5.3 °C 4.4 °C 1010.6 hPa Sur 8.4 km/h 16.7 km/h 94% 1.0 mm
12:09 5.3 °C 4.4 °C 1010.6 hPa SSE 7.9 km/h 16.1 km/h 94% 1.0 mm
12:14 5.3 °C 4.4 °C 1010.6 hPa SSO 7.6 km/h 11.9 km/h 94% 0.7 mm
12:19 5.3 °C 4.4 °C 1010.6 hPa SSO 8.1 km/h 14.8 km/h 94% 1.0 mm
12:24 5.4 °C 4.5 °C 1010.6 hPa SO 8.4 km/h 14.5 km/h 94% 1.0 mm
12:29 5.4 °C 4.5 °C 1010.3 hPa SSO 6.2 km/h 13 km/h 94% 1.2 mm
12:34 5.4 °C 4.5 °C 1010.3 hPa SO 5 km/h 12.9 km/h 94% 1.0 mm
12:39 5.4 °C 4.5 °C 1010.3 hPa SO 5.9 km/h 11.3 km/h 94% 1.2 mm
12:44 5.5 °C 4.6 °C 1010.1 hPa SO 6.5 km/h 13 km/h 94% 1.2 mm
12:49 5.5 °C 4.6 °C 1010.1 hPa SO 7.2 km/h 15.6 km/h 94% 1.2 mm
12:54 5.4 °C 4.5 °C 1010.1 hPa OSO 7.6 km/h 18 km/h 94% 1.2 mm
12:59 5.4 °C 4.5 °C 1010.1 hPa SO 8.8 km/h 19.3 km/h 94% 1.2 mm
13:04 5.4 °C 4.5 °C 1010.1 hPa SO 9.5 km/h 15.6 km/h 94% 1.0 mm
13:09 5.3 °C 4.4 °C 1010.1 hPa OSO 9.5 km/h 16.7 km/h 94% 1.3 mm
13:14 5.3 °C 4.4 °C 1009.8 hPa OSO 9.5 km/h 16.1 km/h 94% 1.3 mm
13:19 5.4 °C 4.5 °C 1009.8 hPa SO 8.8 km/h 16.7 km/h 94% 1.3 mm
13:24 5.3 °C 4.5 °C 1009.8 hPa SO 8.4 km/h 16.1 km/h 94% 1.3 mm
13:29 5.4 °C 4.5 °C 1009.7 hPa SO 8.4 km/h 13.7 km/h 94% 1.3 mm
13:34 5.4 °C 4.5 °C 1009.7 hPa OSO 8.4 km/h 14.8 km/h 94% 1.1 mm
13:39 5.4 °C 4.5 °C 1009.7 hPa SO 8.6 km/h 14.5 km/h 94% 1.0 mm
13:44 5.5 °C 4.6 °C 1009.6 hPa OSO 8.7 km/h 14.8 km/h 94% 0.8 mm
13:49 5.6 °C 4.7 °C 1009.6 hPa Oeste 8.7 km/h 14.8 km/h 94% 0.8 mm
13:54 5.6 °C 4.7 °C 1009.6 hPa Oeste 8.7 km/h 14.8 km/h 94% 0.8 mm
13:59 5.6 °C 4.7 °C 1009.4 hPa Oeste 8.5 km/h 16.7 km/h 94% 1.3 mm
14:04 5.4 °C 4.5 °C 1009.4 hPa OSO 8.4 km/h 16.1 km/h 94% 1.3 mm
14:09 5.5 °C 4.6 °C 1009.4 hPa Oeste 9.1 km/h 13 km/h 94% 1.3 mm
14:14 5.6 °C 4.7 °C 1009.2 hPa OSO 9.5 km/h 12.9 km/h 94% 1.0 mm
14:19 5.6 °C 4.7 °C 1009.2 hPa OSO 7.9 km/h 11.9 km/h 94% 1.3 mm
14:24 5.6 °C 4.7 °C 1009.2 hPa OSO 6.9 km/h 11.3 km/h 94% 1.3 mm
14:29 5.6 °C 4.7 °C 1009.1 hPa OSO 6.6 km/h 14.8 km/h 94% 1.0 mm
14:34 5.6 °C 4.7 °C 1009.1 hPa OSO 6.5 km/h 14.5 km/h 94% 1.0 mm
14:39 5.6 °C 4.7 °C 1009.1 hPa OSO 6.8 km/h 13 km/h 94% 1.0 mm
14:44 5.7 °C 4.8 °C 1009.1 hPa OSO 6.9 km/h 13 km/h 94% 0.8 mm
14:49 5.8 °C 4.9 °C 1009.1 hPa SO 6.9 km/h 12.9 km/h 94% 0.8 mm
14:54 5.8 °C 4.9 °C 1009.1 hPa SO 6.9 km/h 11.3 km/h 94% 0.8 mm
14:59 5.8 °C 4.9 °C 1008.9 hPa SO 6.6 km/h 13 km/h 94% 0.3 mm
15:04 5.8 °C 4.9 °C 1008.9 hPa SO 6.5 km/h 12.9 km/h 94% 0.3 mm
15:09 5.8 °C 4.9 °C 1009.2 hPa OSO 6.8 km/h 11.3 km/h 94% 0.5 mm
15:14 5.8 °C 4.9 °C 1009.2 hPa SO 6.9 km/h 11.3 km/h 94% 0.5 mm
15:19 5.8 °C 4.9 °C 1009.2 hPa OSO 6.6 km/h 11.1 km/h 94% 0.2 mm
15:24 5.8 °C 4.9 °C 1009.3 hPa OSO 6.5 km/h 11.9 km/h 94% 0.5 mm
15:29 5.9 °C 5 °C 1009.3 hPa SO 6.5 km/h 13.7 km/h 94.1% 0.5 mm
15:34 5.9 °C 5 °C 1009.3 hPa OSO 6.4 km/h 14 km/h 94.2% 0.5 mm
15:39 5.8 °C 4.9 °C 1009.3 hPa OSO 7.8 km/h 20.4 km/h 94% 0.5 mm
15:44 5.8 °C 5 °C 1009.2 hPa OSO 8.7 km/h 20.9 km/h 94.4% 0.7 mm
15:49 5.8 °C 5 °C 1009.2 hPa OSO 8.7 km/h 14.5 km/h 94.7% 0.7 mm
15:54 5.8 °C 4.9 °C 1009.3 hPa Oeste 8.7 km/h 12.9 km/h 94.2% 1.0 mm
15:59 5.8 °C 5.1 °C 1009.3 hPa OSO 6.3 km/h 13 km/h 95% 1.0 mm
16:04 5.8 °C 5 °C 1009.3 hPa OSO 5 km/h 13.7 km/h 94.7% 1.0 mm
16:09 5.8 °C 5.1 °C 1009.6 hPa OSO 6.2 km/h 17.2 km/h 95% 1.0 mm
16:14 5.8 °C 5.1 °C 1009.6 hPa OSO 6.9 km/h 20.4 km/h 95% 0.8 mm
16:19 5.7 °C 4.9 °C 1009.6 hPa Oeste 8.6 km/h 20.9 km/h 94.3% 0.8 mm
16:24 5.7 °C 4.8 °C 1010.0 hPa Oeste 9.5 km/h 19.3 km/h 94% 0.8 mm
16:29 5.7 °C 4.8 °C 1010.0 hPa Oeste 10 km/h 16.7 km/h 94% 1.0 mm
16:34 5.7 °C 4.8 °C 1010.0 hPa Oeste 10.3 km/h 18.5 km/h 94% 1.0 mm
16:39 5.7 °C 4.8 °C 1010.2 hPa OSO 9.1 km/h 20.4 km/h 94% 1.0 mm
16:44 5.7 °C 4.8 °C 1010.2 hPa Oeste 8.4 km/h 20.9 km/h 94% 1.0 mm
16:49 5.7 °C 4.8 °C 1010.2 hPa Oeste 9.6 km/h 20.4 km/h 94% 0.8 mm
16:54 5.7 °C 4.8 °C 1010.2 hPa Oeste 10.3 km/h 20.9 km/h 94% 0.8 mm
16:59 5.7 °C 4.8 °C 1010.1 hPa Oeste 8.5 km/h 16.1 km/h 94% 0.5 mm
17:04 5.7 °C 4.8 °C 1010.1 hPa Oeste 7.6 km/h 20.4 km/h 94% 0.5 mm
17:09 5.7 °C 4.8 °C 1010.1 hPa Oeste 8.3 km/h 20.9 km/h 94% 1.0 mm
17:14 5.7 °C 4.8 °C 1010.0 hPa Oeste 8.7 km/h 18 km/h 94% 1.0 mm
17:19 5.6 °C 4.7 °C 1010.0 hPa Oeste 9.2 km/h 18.5 km/h 94% 1.0 mm
17:24 5.6 °C 4.7 °C 1010.0 hPa OSO 9.5 km/h 14.5 km/h 94% 1.0 mm
17:29 5.6 °C 4.7 °C 1010.0 hPa SO 7.6 km/h 11.3 km/h 94% 0.5 mm
17:34 5.6 °C 4.7 °C 1010.0 hPa SO 6.5 km/h 11.3 km/h 94% 0.5 mm
17:39 5.6 °C 4.7 °C 1010.4 hPa OSO 6.5 km/h 11.9 km/h 94% 0.5 mm
17:44 5.7 °C 4.8 °C 1010.4 hPa SO 6.5 km/h 11.9 km/h 94% 0.5 mm
17:49 5.7 °C 4.8 °C 1010.4 hPa SO 6.5 km/h 13.7 km/h 94% 0.5 mm
17:54 5.6 °C 4.7 °C 1010.5 hPa SO 6.5 km/h 19 km/h 94% 0.5 mm
17:59 5.7 °C 4.8 °C 1010.5 hPa Sur 7.2 km/h 19.3 km/h 94% 0.5 mm
18:04 5.7 °C 4.8 °C 1010.5 hPa Sur 7.6 km/h 11.3 km/h 94% 0.5 mm
18:09 5.8 °C 4.9 °C 1010.5 hPa SO 6.4 km/h 11.9 km/h 94% 0.0 mm
18:14 5.8 °C 4.9 °C 1010.5 hPa SO 5.8 km/h 11.3 km/h 94% 0.0 mm
18:19 5.7 °C 4.8 °C 1010.5 hPa SO 6.2 km/h 11.3 km/h 94% 0.0 mm
18:24 5.7 °C 4.8 °C 1010.5 hPa SSO 6.5 km/h 11.3 km/h 94% 0.0 mm
18:29 5.7 °C 4.8 °C 1010.4 hPa SSO 6.8 km/h 11.3 km/h 94% 0.3 mm
18:34 5.7 °C 4.8 °C 1010.4 hPa SO 6.9 km/h 11.3 km/h 94% 0.3 mm
18:39 5.7 °C 4.8 °C 1010.4 hPa SO 6.2 km/h 11.9 km/h 94% 0.3 mm
18:44 5.7 °C 4.8 °C 1010.4 hPa SO 5.8 km/h 12.2 km/h 94% 0.3 mm
18:49 5.7 °C 4.8 °C 1010.4 hPa SO 6.9 km/h 13 km/h 94% 0.3 mm
18:54 5.7 °C 4.8 °C 1010.6 hPa SSO 7.6 km/h 12.9 km/h 94% 0.3 mm
18:59 5.7 °C 4.8 °C 1010.6 hPa Sur 7.1 km/h 14.8 km/h 94% 0.3 mm
19:04 5.7 °C 4.8 °C 1010.6 hPa Sur 6.9 km/h 14.5 km/h 94% 0.3 mm
19:09 5.7 °C 4.8 °C 1010.8 hPa Sur 8.6 km/h 16.7 km/h 94% 0.3 mm
19:14 5.7 °C 4.8 °C 1010.8 hPa Sur 9.5 km/h 16.1 km/h 94% 0.3 mm
19:19 5.7 °C 4.8 °C 1010.8 hPa Sur 9.8 km/h 16.7 km/h 94% 0.3 mm
19:24 5.6 °C 4.9 °C 1010.9 hPa SSO 10 km/h 16.1 km/h 94.9% 0.3 mm
19:29 5.6 °C 4.9 °C 1010.9 hPa Sur 10 km/h 18.5 km/h 95% 0.3 mm
19:34 5.5 °C 4.7 °C 1010.9 hPa SSO 10 km/h 19 km/h 95% 0.0 mm
19:39 5.4 °C 4.7 °C 1011.2 hPa SSO 10.2 km/h 19.3 km/h 95% 0.0 mm
19:44 5.4 °C 4.7 °C 1011.2 hPa SSO 10.3 km/h 16.7 km/h 95% 0.0 mm
19:49 5.4 °C 4.7 °C 1011.2 hPa SSO 9.8 km/h 16.7 km/h 95% 0.0 mm
19:54 5.4 °C 4.7 °C 1011.2 hPa SSO 9.5 km/h 16.1 km/h 95% 0.0 mm
19:59 5.4 °C 4.7 °C 1011.0 hPa SSO 8.8 km/h 12.9 km/h 95% 0.0 mm
20:04 5.4 °C 4.7 °C 1011.0 hPa Sur 8.4 km/h 11.9 km/h 95% 0.0 mm
20:09 5.4 °C 4.7 °C 1011.3 hPa Sur 7.8 km/h 13 km/h 95% 0.0 mm
20:14 5.5 °C 4.8 °C 1011.3 hPa Sur 7.6 km/h 14.8 km/h 95% 0.0 mm
20:19 5.5 °C 4.8 °C 1011.3 hPa Sur 8.8 km/h 14.8 km/h 95% 0.0 mm
20:24 5.5 °C 4.8 °C 1011.3 hPa Sur 9.5 km/h 15.6 km/h 95% 0.0 mm
20:29 5.5 °C 4.8 °C 1011.1 hPa Sur 9.5 km/h 16.1 km/h 95% 0.0 mm
20:34 5.5 °C 4.8 °C 1011.1 hPa Sur 9.5 km/h 14.5 km/h 95% 0.0 mm
20:39 5.5 °C 4.8 °C 1011.1 hPa Sur 9 km/h 13.7 km/h 95% 0.0 mm
20:44 5.5 °C 4.8 °C 1011.0 hPa Sur 8.7 km/h 14.5 km/h 95% 0.0 mm
20:46 5.5 °C 4.8 °C 1011.0 hPa SSO 8.7 km/h 12.9 km/h 95% 0.0 mm
20:54 5.5 °C 4.8 °C 1011.0 hPa SSO 8.7 km/h 14 km/h 95% 0.0 mm
20:59 5.5 °C 4.8 °C 1011.0 hPa SSO 8.5 km/h 14.8 km/h 94.9% 0.0 mm
21:04 5.5 °C 4.6 °C 1011.0 hPa SSO 8.4 km/h 14.8 km/h 94.2% 0.0 mm
21:09 5.5 °C 4.6 °C 1011.2 hPa Sur 8.6 km/h 16.1 km/h 94% 0.0 mm
21:14 5.5 °C 4.6 °C 1011.2 hPa SSO 8.7 km/h 16.7 km/h 94% 0.0 mm
21:19 5.5 °C 4.6 °C 1011.2 hPa SSO 9.2 km/h 16.7 km/h 94% 0.0 mm
21:24 5.5 °C 4.6 °C 1011.2 hPa Sur 9.5 km/h 18.3 km/h 94% 0.0 mm
21:29 5.5 °C 4.6 °C 1010.8 hPa Sur 11.1 km/h 19.3 km/h 94% 0.0 mm
21:34 5.5 °C 4.6 °C 1010.8 hPa Sur 11.9 km/h 19.3 km/h 94% 0.0 mm
21:39 5.6 °C 4.7 °C 1010.9 hPa Sur 10.6 km/h 14.8 km/h 94% 0.0 mm
21:44 5.6 °C 4.7 °C 1010.9 hPa SSO 10 km/h 14.5 km/h 94% 0.0 mm
21:49 5.6 °C 4.7 °C 1010.9 hPa Sur 9.1 km/h 13.7 km/h 94% 0.0 mm
21:54 5.6 °C 4.7 °C 1010.9 hPa SSO 8.7 km/h 17.2 km/h 93.7% 0.0 mm
21:59 5.7 °C 4.6 °C 1010.9 hPa SSO 9.5 km/h 17.7 km/h 93% 0.0 mm
22:04 5.7 °C 4.6 °C 1010.9 hPa SSO 10 km/h 16.1 km/h 93% 0.0 mm
22:09 5.7 °C 4.7 °C 1010.9 hPa Sur 8.4 km/h 12.9 km/h 93% 0.0 mm
22:14 5.7 °C 4.7 °C 1010.5 hPa SSO 7.6 km/h 11.9 km/h 93% 0.0 mm
22:19 5.7 °C 4.7 °C 1010.5 hPa SSO 7.2 km/h 12.2 km/h 93% 0.0 mm
22:24 5.7 °C 4.7 °C 1010.5 hPa Sur 6.9 km/h 13 km/h 93% 0.0 mm
22:29 5.7 °C 4.7 °C 1010.4 hPa Sur 7.9 km/h 14.8 km/h 93% 0.0 mm
22:34 5.7 °C 4.7 °C 1010.4 hPa Sur 8.4 km/h 14.5 km/h 93% 0.0 mm
22:39 5.7 °C 4.7 °C 1010.4 hPa Sur 7.8 km/h 14.8 km/h 93% 0.0 mm
22:44 5.7 °C 4.7 °C 1010.4 hPa Sur 7.6 km/h 17.2 km/h 93% 0.0 mm
22:49 5.7 °C 4.7 °C 1010.4 hPa Sur 9.4 km/h 17.7 km/h 93% 0.0 mm
22:54 5.7 °C 4.7 °C 1010.6 hPa Sur 10.3 km/h 16.7 km/h 93% 0.0 mm
22:59 5.7 °C 4.6 °C 1010.6 hPa Sur 10.3 km/h 16.7 km/h 93% 0.0 mm
23:04 5.7 °C 4.7 °C 1010.6 hPa Sur 10.3 km/h 14.8 km/h 93% 0.0 mm
23:09 5.6 °C 4.6 °C 1010.6 hPa SSO 9.3 km/h 14.8 km/h 93% 0.0 mm
23:14 5.6 °C 4.6 °C 1010.4 hPa SSO 8.7 km/h 14.8 km/h 93% 0.0 mm
23:19 5.6 °C 4.6 °C 1010.4 hPa SSO 8 km/h 14.8 km/h 93% 0.0 mm
23:24 5.6 °C 4.6 °C 1010.4 hPa SSO 7.6 km/h 14.8 km/h 93% 0.0 mm
23:29 5.6 °C 4.6 °C 1010.2 hPa SSO 8.1 km/h 14.5 km/h 93% 0.0 mm
23:34 5.6 °C 4.6 °C 1010.2 hPa Sur 8.4 km/h 14.8 km/h 93% 0.0 mm
23:39 5.6 °C 4.6 °C 1010.2 hPa SSO 8.6 km/h 15.6 km/h 93% 0.0 mm
23:44 5.6 °C 4.6 °C 1010.0 hPa SSO 8.7 km/h 16.7 km/h 93% 0.0 mm
23:49 5.6 °C 4.5 °C 1010.0 hPa Sur 8.7 km/h 16.7 km/h 93% 0.0 mm
23:54 5.6 °C 4.5 °C 1010.0 hPa Sur 8.7 km/h 16.1 km/h 93% 0.0 mm
23:59 5.6 °C 4.5 °C 1009.7 hPa Sur 9.2 km/h 15.6 km/h 93% 0.0 mm
Murcia-Puente Tocinos, Espa?a
Compliments of Weather Underground - 3 mb

La estación de MeteoMurcia.com, publica sus datos en los siguientes proyectos:

Weather Underground PWS IMURCIAP2 Meteoclimatic www.awekas.at

W3Counter
Web Analytics